Avoca, IN

6:04 PM EDT on July 29, 2015 (GMT -0400)
Springville Judah | | Change Station
CLOSE
Current Station
Personal Weather Station
Location: Springville, IN
Elevation: 731 ft
Nearby Weather Stations

Elev 731 ft 38.96 °N, 86.58 °W | Updated 2 seconds ago

Clear
Clear
79.0 °F
Feels Like 83 °F
N
4.5
Wind Variable Wind from SW
Gusts 6.0 mph

Today
High -- | Low -- °F
--% Chance of Precip.
Yesterday
High -- | Low -- °F
Precip. -- in
6:44 AM 9:00 PM
Waxing Gibbous, 97% visible
Pressure 29.94 in
Visibility 10.0 miles
Clouds Few 1700 ft
Scattered Clouds 3800 ft
Scattered Clouds 6000 ft
Heat Index 83 °F
Dew Point 74 °F
Humidity 86%
Rainfall 0.07 in
Snow Depth Not available.
UV 3 out of 12
Pollen 5.90 out of 12
Air Quality Not available.
Flu Activity Not available.
METAR KBMG 292153Z 35003KT 10SM FEW017 SCT038 SCT060 29/26 A2996 RMK AO2 LTG DSNT S SLP137 T02890256

More Conditions Fewer Conditions

Pressure 29.94 in
Visibility 10.0 miles
Clouds Few 1700 ft
Scattered Clouds 3800 ft
Scattered Clouds 6000 ft
Heat Index 83 °F
Dew Point 74 °F
Humidity 86%
Rainfall 0.07 in
Snow Depth Not available.
UV 3 out of 12
Pollen 5.90 out of 12
Air Quality Not available.
Flu Activity Not available.
METAR KBMG 292153Z 35003KT 10SM FEW017 SCT038 SCT060 29/26 A2996 RMK AO2 LTG DSNT S SLP137 T02890256

More Conditions Fewer Conditions

10-Day Weather Forecast

×

Almanac

Astronomy

Jul. 29, 2015 Rise Set
Actual Time
Civil Twilight
Nautical Twilight
Astronomical Twilight
Moon
Length of Visible Light
Length of Day
Tomorrow will be .
, % of the Moon is Illuminated

Today's Extremes

State Highs State Lows

Community

WunderPhotos

Upload Photos

1,842,159 photos uploaded!

WunderBlogs® & News

Nearby

Air Quality

  Air Quality AQ Index Pollutant
Not available.

Snow Depth

Station Depth Elevation

Earthquake Activity

City Distance Mag. Time & Date
Minimum magnitude displayed is 2.5.

Coastal Water Temperatures

Place Temperature

Stations

Nearby Weather Stations

Station Location Temp. Windchill Dew Point Humidity Wind Precip. Elev Updated Type